createdAt,value
2023-04-28T00:00:19.125Z,6.60
2023-04-28T00:02:48.005Z,8.67
2023-04-28T00:05:14.749Z,4.90
2023-04-28T00:07:41.312Z,7.47
2023-04-28T00:10:08.456Z,5.67
2023-04-28T00:12:35.070Z,8.00
2023-04-28T00:15:03.813Z,4.97
2023-04-28T00:17:31.006Z,6.17
2023-04-28T00:19:57.681Z,5.73
2023-04-28T00:22:24.099Z,5.77
2023-04-28T00:24:50.723Z,6.90
2023-04-28T00:27:17.866Z,7.00
2023-04-28T00:29:44.348Z,5.37
2023-04-28T00:32:10.895Z,8.27
2023-04-28T00:34:37.367Z,5.53
2023-04-28T00:37:04.468Z,5.63
2023-04-28T00:39:30.873Z,7.00
2023-04-28T00:41:57.750Z,8.97
2023-04-28T00:44:24.152Z,6.67
2023-04-28T00:46:50.768Z,6.63
2023-04-28T00:49:17.164Z,6.80
2023-04-28T00:51:43.683Z,7.13
2023-04-28T00:54:14.420Z,4.90
2023-04-28T00:56:41.109Z,4.87
2023-04-28T00:59:07.613Z,6.87
2023-04-28T01:01:35.103Z,5.10
2023-04-28T01:04:02.526Z,6.33
2023-04-28T01:06:30.768Z,6.53
2023-04-28T01:08:59.924Z,9.50
2023-04-28T01:11:26.680Z,6.40
2023-04-28T01:14:03.658Z,8.00
2023-04-28T01:16:35.473Z,5.00
2023-04-28T01:19:02.876Z,6.40
2023-04-28T01:21:34.481Z,5.17
2023-04-28T01:24:09.397Z,5.83
2023-04-28T01:26:35.913Z,4.77
2023-04-28T01:29:02.503Z,5.80
2023-04-28T01:31:33.025Z,8.87
2023-04-28T01:34:00.206Z,6.97
2023-04-28T01:36:28.464Z,7.57
2023-04-28T01:38:55.382Z,6.33
2023-04-28T01:41:22.324Z,4.90
2023-04-28T01:43:49.031Z,6.07
2023-04-28T01:46:15.636Z,6.03
2023-04-28T01:48:42.189Z,6.10
2023-04-28T01:51:08.599Z,6.20
2023-04-28T01:53:38.177Z,7.27
2023-04-28T01:56:04.820Z,6.80
2023-04-28T01:58:31.385Z,7.13
2023-04-28T02:00:58.638Z,7.17
2023-04-28T02:03:25.573Z,6.10
2023-04-28T02:05:52.350Z,7.93
2023-04-28T02:08:18.807Z,8.40
2023-04-28T02:10:45.522Z,6.53
2023-04-28T02:13:12.092Z,8.10
2023-04-28T02:15:42.690Z,6.83
2023-04-28T02:18:10.437Z,7.27
2023-04-28T02:20:39.659Z,7.10
2023-04-28T02:23:07.835Z,5.43
2023-04-28T02:25:34.472Z,8.67
2023-04-28T02:28:00.940Z,9.83
2023-04-28T02:30:27.462Z,7.70
2023-04-28T02:32:55.736Z,9.83
2023-04-28T02:35:22.164Z,10.20
2023-04-28T02:37:48.954Z,9.63
2023-04-28T02:40:15.444Z,7.90
2023-04-28T02:42:41.895Z,9.57
2023-04-28T02:45:08.485Z,9.83
2023-04-28T02:47:34.963Z,5.53
2023-04-28T02:50:02.802Z,6.37
2023-04-28T02:52:29.309Z,6.90
2023-04-28T02:54:57.448Z,6.90
2023-04-28T02:57:24.992Z,5.37
2023-04-28T02:59:51.433Z,7.50
2023-04-28T03:02:18.026Z,6.70
2023-04-28T03:04:44.499Z,6.67
2023-04-28T03:07:11.333Z,8.43
2023-04-28T03:09:37.806Z,7.07
2023-04-28T03:12:04.470Z,7.03
2023-04-28T03:14:32.492Z,7.00
2023-04-28T03:16:59.038Z,9.50
2023-04-28T03:19:26.461Z,7.93
2023-04-28T03:21:53.042Z,8.20
2023-04-28T03:24:19.463Z,10.03
2023-04-28T03:26:46.022Z,6.47
2023-04-28T03:29:12.598Z,7.13
2023-04-28T03:31:39.128Z,8.37
2023-04-28T03:34:05.792Z,8.03
2023-04-28T03:36:33.043Z,7.23
2023-04-28T03:39:07.562Z,10.27
2023-04-28T03:41:34.340Z,8.27
2023-04-28T03:44:26.789Z,8.60
2023-04-28T03:46:53.325Z,8.97
2023-04-28T03:49:19.697Z,9.93
2023-04-28T03:51:46.607Z,9.97
2023-04-28T03:54:13.540Z,7.63
2023-04-28T03:56:41.340Z,7.57
2023-04-28T03:59:07.837Z,8.50
2023-04-28T04:01:34.464Z,10.60
2023-04-28T04:04:01.324Z,9.37
2023-04-28T04:06:27.984Z,7.67
2023-04-28T04:08:54.757Z,9.47
2023-04-28T04:11:21.231Z,7.70
2023-04-28T04:13:47.902Z,9.40
2023-04-28T04:16:16.689Z,7.27
2023-04-28T04:18:43.218Z,9.37
2023-04-28T04:21:16.256Z,7.73
2023-04-28T04:23:42.651Z,10.97
2023-04-28T04:26:09.171Z,7.47
2023-04-28T04:28:36.413Z,7.93
2023-04-28T04:31:05.024Z,7.87
2023-04-28T04:33:32.041Z,9.83
2023-04-28T04:35:58.758Z,8.33
2023-04-28T04:38:25.357Z,7.73
2023-04-28T04:40:53.408Z,9.57
2023-04-28T04:43:19.888Z,9.23
2023-04-28T04:45:49.523Z,7.03
2023-04-28T04:48:16.847Z,7.10
2023-04-28T04:50:44.420Z,6.67
2023-04-28T04:53:14.686Z,10.37
2023-04-28T04:55:43.257Z,8.03
2023-04-28T04:58:09.974Z,8.13
2023-04-28T05:00:42.261Z,11.27
2023-04-28T05:03:10.527Z,8.47
2023-04-28T05:05:40.023Z,6.43
2023-04-28T05:08:13.026Z,9.00
2023-04-28T05:10:40.327Z,10.47
2023-04-28T05:13:07.231Z,11.90
2023-04-28T05:15:33.986Z,6.83
2023-04-28T05:18:14.857Z,8.77
2023-04-28T05:20:41.352Z,7.97
2023-04-28T05:23:08.059Z,9.40
2023-04-28T05:25:34.720Z,6.97
2023-04-28T05:28:07.200Z,7.23
2023-04-28T05:30:34.223Z,7.77
2023-04-28T05:33:01.059Z,9.17
2023-04-28T05:35:27.808Z,7.03
2023-04-28T05:37:54.261Z,10.83
2023-04-28T05:40:20.953Z,7.20
2023-04-28T05:42:47.417Z,8.50
2023-04-28T05:45:14.277Z,8.00
2023-04-28T05:47:41.308Z,8.77
2023-04-28T05:50:08.259Z,9.87
2023-04-28T05:52:34.836Z,8.77
2023-04-28T05:55:02.419Z,8.70
2023-04-28T05:57:31.978Z,10.13
2023-04-28T06:00:00.680Z,11.30
2023-04-28T06:02:28.171Z,9.80
2023-04-28T06:04:56.206Z,9.60
2023-04-28T06:07:22.947Z,8.03
2023-04-28T06:09:49.870Z,10.23
2023-04-28T06:12:16.595Z,8.53
2023-04-28T06:14:43.005Z,7.43
2023-04-28T06:17:09.499Z,9.33
2023-04-28T06:19:36.111Z,9.80
2023-04-28T06:22:02.646Z,9.90
2023-04-28T06:24:29.409Z,10.80
2023-04-28T06:26:57.778Z,9.60
2023-04-28T06:29:24.222Z,9.43
2023-04-28T06:31:52.805Z,9.33
2023-04-28T06:34:19.456Z,9.43
2023-04-28T06:36:45.982Z,10.47
2023-04-28T06:39:12.769Z,11.43
2023-04-28T06:41:39.295Z,12.37
2023-04-28T06:44:05.953Z,8.77
2023-04-28T06:46:34.222Z,11.67
2023-04-28T06:49:00.886Z,9.77
2023-04-28T06:51:28.733Z,12.83
2023-04-28T06:53:55.648Z,8.97
2023-04-28T06:56:22.157Z,9.63
2023-04-28T06:58:48.612Z,9.33
2023-04-28T07:01:15.132Z,8.67
2023-04-28T07:03:41.666Z,9.57
2023-04-28T07:06:08.574Z,11.30
2023-04-28T07:08:35.802Z,9.13
2023-04-28T07:11:06.239Z,11.07
2023-04-28T07:13:33.296Z,12.00
2023-04-28T07:15:59.864Z,10.07
2023-04-28T07:18:26.413Z,12.20
2023-04-28T07:20:53.146Z,11.57
2023-04-28T07:23:19.575Z,9.83
2023-04-28T07:25:45.980Z,9.77
2023-04-28T07:28:13.788Z,13.77
2023-04-28T07:30:40.398Z,9.70
2023-04-28T07:33:06.874Z,13.63
2023-04-28T07:35:33.498Z,11.77
2023-04-28T07:38:00.003Z,10.60
2023-04-28T07:40:27.482Z,10.30
2023-04-28T07:42:54.247Z,11.67
2023-04-28T07:45:20.873Z,10.43
2023-04-28T07:47:47.304Z,13.33
2023-04-28T07:50:13.836Z,11.07
2023-04-28T07:52:40.478Z,11.20
2023-04-28T07:55:07.464Z,10.67
2023-04-28T07:57:33.969Z,13.17
2023-04-28T08:00:00.787Z,13.20
2023-04-28T08:02:38.344Z,10.93
2023-04-28T08:05:07.012Z,10.47
2023-04-28T08:07:33.590Z,12.43
2023-04-28T08:10:01.056Z,13.87
2023-04-28T08:12:27.580Z,13.90
2023-04-28T08:14:54.051Z,13.43
2023-04-28T08:17:20.463Z,12.60
2023-04-28T08:19:47.491Z,12.40
2023-04-28T08:22:13.971Z,11.87
2023-04-28T08:24:40.590Z,10.97
2023-04-28T08:27:07.259Z,12.07
2023-04-28T08:29:33.831Z,14.67
2023-04-28T08:32:02.332Z,11.10
2023-04-28T08:34:29.290Z,10.70
2023-04-28T08:36:55.827Z,12.57
2023-04-28T08:39:23.502Z,11.17
2023-04-28T08:41:50.594Z,12.23
2023-04-28T08:44:17.735Z,12.50
2023-04-28T08:46:46.182Z,12.50
2023-04-28T08:49:17.903Z,10.43
2023-04-28T08:51:47.692Z,10.23
2023-04-28T08:54:29.545Z,14.03
2023-04-28T08:56:57.618Z,11.50
2023-04-28T08:59:24.515Z,12.73
2023-04-28T09:01:51.424Z,14.73
2023-04-28T09:04:19.002Z,14.80
2023-04-28T09:06:46.462Z,11.40
2023-04-28T09:09:22.894Z,12.40
2023-04-28T09:12:01.208Z,11.20
2023-04-28T09:14:29.402Z,13.13
2023-04-28T09:16:56.680Z,12.03
2023-04-28T09:19:23.585Z,12.17
2023-04-28T09:21:53.085Z,13.70
2023-04-28T09:24:26.955Z,13.03
2023-04-28T09:26:55.474Z,12.10
2023-04-28T09:29:22.680Z,12.60
2023-04-28T09:31:49.451Z,12.77
2023-04-28T09:34:16.207Z,14.03
2023-04-28T09:36:42.989Z,14.97
2023-04-28T09:39:09.484Z,14.03
2023-04-28T09:41:41.475Z,12.60
2023-04-28T09:44:19.702Z,12.23
2023-04-28T09:46:47.036Z,16.47
2023-04-28T09:49:14.203Z,14.63
2023-04-28T09:51:41.439Z,11.97
2023-04-28T09:54:08.035Z,13.37
2023-04-28T09:56:40.877Z,13.53
2023-04-28T09:59:08.054Z,14.53
2023-04-28T10:01:40.977Z,11.23
2023-04-28T10:04:09.274Z,13.10
2023-04-28T10:06:36.762Z,12.37
2023-04-28T10:09:03.862Z,11.63
2023-04-28T10:11:30.798Z,15.10
2023-04-28T10:13:57.285Z,14.20
2023-04-28T10:16:24.499Z,14.90
2023-04-28T10:18:52.744Z,14.77
2023-04-28T10:21:22.434Z,12.93
2023-04-28T10:24:15.003Z,13.13
2023-04-28T10:27:05.521Z,15.40
2023-04-28T10:29:36.121Z,12.97
2023-04-28T10:32:19.254Z,14.13
2023-04-28T10:34:45.881Z,14.37
2023-04-28T10:37:14.904Z,12.07
2023-04-28T10:40:02.568Z,14.07
2023-04-28T10:42:51.610Z,14.93
2023-04-28T10:45:56.202Z,12.80
2023-04-28T10:48:49.273Z,13.90
2023-04-28T10:51:15.722Z,11.67
2023-04-28T10:53:45.473Z,13.50
2023-04-28T10:56:13.077Z,12.57
2023-04-28T10:58:44.967Z,11.67
2023-04-28T11:01:21.555Z,12.00
2023-04-28T11:04:08.512Z,15.30
2023-04-28T11:06:42.309Z,16.87
2023-04-28T11:09:14.973Z,13.10
2023-04-28T11:12:10.705Z,13.53
2023-04-28T11:14:40.239Z,12.77
2023-04-28T11:17:13.208Z,13.60
2023-04-28T11:19:45.272Z,11.93
2023-04-28T11:22:16.845Z,16.50
2023-04-28T11:25:04.060Z,13.17
2023-04-28T11:27:32.790Z,14.00
2023-04-28T11:30:00.179Z,12.53
2023-04-28T11:32:33.841Z,15.53
2023-04-28T11:35:02.444Z,16.23
2023-04-28T11:37:28.810Z,14.50
2023-04-28T11:39:55.356Z,14.47
2023-04-28T11:42:21.826Z,13.47
2023-04-28T11:44:52.847Z,12.87
2023-04-28T11:47:30.178Z,16.63
2023-04-28T11:49:56.982Z,12.77
2023-04-28T11:52:23.668Z,12.97
2023-04-28T11:54:55.388Z,12.07
2023-04-28T11:57:23.317Z,14.87
2023-04-28T11:59:50.787Z,12.83
2023-04-28T12:02:29.110Z,16.13
2023-04-28T12:04:56.333Z,12.57
2023-04-28T12:07:23.607Z,12.23
2023-04-28T12:10:13.036Z,14.53
2023-04-28T12:12:50.619Z,13.30
2023-04-28T12:15:20.802Z,14.73
2023-04-28T12:17:48.692Z,13.77
2023-04-28T12:20:39.305Z,13.47
2023-04-28T12:23:07.935Z,17.43
2023-04-28T12:25:43.599Z,14.63
2023-04-28T12:28:10.674Z,16.37
2023-04-28T12:30:43.941Z,14.17
2023-04-28T12:33:27.414Z,15.30
2023-04-28T12:35:55.150Z,14.43
2023-04-28T12:38:22.285Z,15.27
2023-04-28T12:40:48.874Z,15.33
2023-04-28T12:43:15.451Z,15.93
2023-04-28T12:45:41.962Z,15.43
2023-04-28T12:48:08.405Z,14.57
2023-04-28T12:50:35.325Z,12.17
2023-04-28T12:53:02.460Z,12.37
2023-04-28T12:55:29.365Z,13.20
2023-04-28T12:57:55.825Z,12.67
2023-04-28T13:00:23.206Z,14.47
2023-04-28T13:02:50.037Z,14.10
2023-04-28T13:05:16.824Z,16.37
2023-04-28T13:07:43.285Z,12.67
2023-04-28T13:10:10.233Z,16.30
2023-04-28T13:12:36.757Z,14.20
2023-04-28T13:15:04.115Z,14.97
2023-04-28T13:17:30.716Z,13.83
2023-04-28T13:19:57.187Z,15.60
2023-04-28T13:22:23.603Z,18.03
2023-04-28T13:24:50.670Z,16.70
2023-04-28T13:27:17.272Z,15.93
2023-04-28T13:29:43.680Z,17.60
2023-04-28T13:32:10.490Z,19.30
2023-04-28T13:34:38.071Z,13.73
2023-04-28T13:37:04.569Z,15.03
2023-04-28T13:39:31.589Z,15.63
2023-04-28T13:41:58.045Z,19.30
2023-04-28T13:44:24.522Z,14.87
2023-04-28T13:46:51.163Z,14.83
2023-04-28T13:49:17.766Z,15.67
2023-04-28T13:51:45.592Z,16.87
2023-04-28T13:54:12.229Z,16.50
2023-04-28T13:56:38.652Z,18.27
2023-04-28T13:59:05.181Z,15.63
2023-04-28T14:01:31.706Z,15.93
2023-04-28T14:03:58.328Z,20.13
2023-04-28T14:06:25.034Z,22.30
2023-04-28T14:08:52.521Z,19.37
2023-04-28T14:11:18.916Z,17.37
2023-04-28T14:13:45.367Z,18.27
2023-04-28T14:16:11.983Z,17.27
2023-04-28T14:18:38.631Z,15.70
2023-04-28T14:21:08.021Z,18.70
2023-04-28T14:23:35.609Z,17.60
2023-04-28T14:26:02.744Z,17.00
2023-04-28T14:28:29.279Z,14.83
2023-04-28T14:30:55.963Z,16.23
2023-04-28T14:33:22.394Z,16.67
2023-04-28T14:35:48.805Z,15.83
2023-04-28T14:38:15.264Z,11.47
2023-04-28T14:40:42.948Z,13.60
2023-04-28T14:43:09.481Z,14.90
2023-04-28T14:45:37.502Z,11.83
2023-04-28T14:48:04.310Z,12.67
2023-04-28T14:50:30.813Z,14.80
2023-04-28T14:53:00.234Z,12.97
2023-04-28T14:55:28.030Z,11.60
2023-04-28T14:57:54.651Z,12.60
2023-04-28T15:00:21.038Z,14.00
2023-04-28T15:02:47.718Z,10.43
2023-04-28T15:05:14.174Z,10.53
2023-04-28T15:07:40.826Z,13.40
2023-04-28T15:10:07.917Z,13.97
2023-04-28T15:12:35.369Z,11.83
2023-04-28T15:15:02.499Z,13.67
2023-04-28T15:17:29.067Z,12.77
2023-04-28T15:19:55.685Z,16.17
2023-04-28T15:22:22.097Z,13.13
2023-04-28T15:24:48.887Z,17.67
2023-04-28T15:27:15.629Z,12.17
2023-04-28T15:29:42.098Z,12.10
2023-04-28T15:32:08.640Z,10.90
2023-04-28T15:34:35.365Z,17.07
2023-04-28T15:37:39.259Z,13.77
2023-04-28T15:40:06.303Z,12.80
2023-04-28T15:42:32.910Z,13.17
2023-04-28T15:44:59.677Z,14.93
2023-04-28T15:47:26.100Z,17.17
2023-04-28T15:49:52.690Z,14.87
2023-04-28T15:52:19.195Z,13.33
2023-04-28T15:54:46.471Z,15.97
2023-04-28T15:57:12.878Z,16.23
2023-04-28T15:59:39.392Z,13.80
2023-04-28T16:02:06.519Z,16.13
2023-04-28T16:04:33.222Z,16.87
2023-04-28T16:07:02.542Z,18.03
2023-04-28T16:09:29.708Z,16.43
2023-04-28T16:11:59.273Z,15.90
2023-04-28T16:14:26.801Z,16.57
2023-04-28T16:16:53.242Z,17.00
2023-04-28T16:19:19.686Z,16.57
2023-04-28T16:21:46.138Z,17.93
2023-04-28T16:24:12.874Z,16.60
2023-04-28T16:26:39.274Z,18.23
2023-04-28T16:29:05.911Z,18.00
2023-04-28T16:31:33.853Z,17.67
2023-04-28T16:34:00.477Z,19.23
2023-04-28T16:36:33.131Z,17.00
2023-04-28T16:38:59.603Z,19.00
2023-04-28T16:41:26.083Z,19.37
2023-04-28T16:43:52.853Z,21.50
2023-04-28T16:46:19.316Z,20.20
2023-04-28T16:48:45.748Z,17.97
2023-04-28T16:51:12.255Z,17.47
2023-04-28T16:53:39.127Z,19.27
2023-04-28T16:56:10.247Z,20.87
2023-04-28T16:58:37.141Z,17.90
2023-04-28T17:01:03.865Z,18.63
2023-04-28T17:03:30.895Z,19.07
2023-04-28T17:05:57.490Z,17.73
2023-04-28T17:08:23.940Z,18.40
2023-04-28T17:10:50.633Z,21.83
2023-04-28T17:13:17.010Z,20.07
2023-04-28T17:15:43.677Z,20.63
2023-04-28T17:18:10.109Z,16.60
2023-04-28T17:20:38.137Z,18.20
2023-04-28T17:23:04.610Z,19.50
2023-04-28T17:25:31.412Z,18.00
2023-04-28T17:27:59.521Z,20.00
2023-04-28T17:30:26.086Z,20.00
2023-04-28T17:32:52.718Z,21.97
2023-04-28T17:35:19.211Z,19.80
2023-04-28T17:37:45.762Z,18.93
2023-04-28T17:40:12.910Z,18.17
2023-04-28T17:42:39.336Z,18.87
2023-04-28T17:45:07.352Z,18.73
2023-04-28T17:47:34.067Z,19.07
2023-04-28T17:50:00.616Z,18.50
2023-04-28T17:52:27.521Z,21.27
2023-04-28T17:54:54.297Z,18.03
2023-04-28T17:57:21.209Z,22.10
2023-04-28T17:59:51.027Z,22.40
2023-04-28T18:02:20.331Z,24.90
2023-04-28T18:04:46.921Z,22.10
2023-04-28T18:07:13.370Z,23.10
2023-04-28T18:09:39.802Z,23.57
2023-04-28T18:12:06.912Z,21.13
2023-04-28T18:14:33.918Z,21.63
2023-04-28T18:17:00.422Z,24.30
2023-04-28T18:19:28.541Z,22.33
2023-04-28T18:21:56.683Z,25.10
2023-04-28T18:24:24.217Z,22.90
2023-04-28T18:26:50.719Z,21.67
2023-04-28T18:29:18.709Z,23.47
2023-04-28T18:31:45.520Z,21.13
2023-04-28T18:34:12.048Z,22.10
2023-04-28T18:36:38.452Z,22.60
2023-04-28T18:39:06.178Z,20.77
2023-04-28T18:41:34.516Z,22.90
2023-04-28T18:44:01.940Z,24.27
2023-04-28T18:46:29.270Z,21.17
2023-04-28T18:48:56.380Z,25.60
2023-04-28T18:51:22.889Z,24.70
2023-04-28T18:53:49.563Z,21.87
2023-04-28T18:56:16.557Z,28.37
2023-04-28T18:58:42.945Z,27.87
2023-04-28T19:01:13.997Z,24.37
2023-04-28T19:03:40.727Z,29.10
2023-04-28T19:06:07.407Z,29.37
2023-04-28T19:08:33.995Z,25.70
2023-04-28T19:11:00.508Z,29.07
2023-04-28T19:13:26.896Z,27.23
2023-04-28T19:15:57.023Z,29.97
2023-04-28T19:18:23.457Z,27.93
2023-04-28T19:20:52.454Z,30.37
2023-04-28T19:23:18.900Z,34.03
2023-04-28T19:25:45.514Z,28.40
2023-04-28T19:28:11.922Z,29.87
2023-04-28T19:30:38.426Z,30.47
2023-04-28T19:33:04.914Z,27.17
2023-04-28T19:35:31.583Z,25.97
2023-04-28T19:37:58.114Z,30.00
2023-04-28T19:40:26.162Z,32.13
2023-04-28T19:42:52.840Z,30.07
2023-04-28T19:45:19.215Z,30.57
2023-04-28T19:47:45.668Z,30.70
2023-04-28T19:50:12.279Z,29.73
2023-04-28T19:52:38.718Z,29.70
2023-04-28T19:55:06.221Z,36.17
2023-04-28T19:57:32.736Z,29.80
2023-04-28T19:59:59.406Z,32.67
2023-04-28T20:02:26.414Z,34.33
2023-04-28T20:04:53.039Z,31.00
2023-04-28T20:07:19.589Z,31.47
2023-04-28T20:09:46.184Z,33.80
2023-04-28T20:12:12.634Z,34.27
2023-04-28T20:14:39.035Z,33.63
2023-04-28T20:17:07.371Z,34.87
2023-04-28T20:19:34.830Z,32.57
2023-04-28T20:22:07.666Z,36.97
2023-04-28T20:24:35.240Z,36.90
2023-04-28T20:27:03.721Z,37.43
2023-04-28T20:29:34.218Z,38.17
2023-04-28T20:32:02.774Z,37.53
2023-04-28T20:34:29.374Z,34.37
2023-04-28T20:36:57.910Z,34.47
2023-04-28T20:39:24.301Z,32.13
2023-04-28T20:41:51.580Z,30.17
2023-04-28T20:44:18.340Z,31.80
2023-04-28T20:46:45.374Z,30.17
2023-04-28T20:49:12.493Z,25.23
2023-04-28T20:51:45.010Z,24.10
2023-04-28T20:54:13.717Z,22.50
2023-04-28T20:56:41.861Z,23.43
2023-04-28T20:59:08.437Z,19.17
2023-04-28T21:01:34.890Z,20.00
2023-04-28T21:04:03.430Z,20.67
2023-04-28T21:06:29.938Z,19.80
2023-04-28T21:08:56.376Z,18.03
2023-04-28T21:11:22.791Z,21.10
2023-04-28T21:13:50.601Z,16.37
2023-04-28T21:16:20.875Z,20.03
2023-04-28T21:18:48.972Z,16.73
2023-04-28T21:21:15.739Z,16.17
2023-04-28T21:23:42.670Z,16.40
2023-04-28T21:26:10.077Z,15.87
2023-04-28T21:28:37.088Z,15.40
2023-04-28T21:31:04.372Z,17.57
2023-04-28T21:33:32.114Z,16.90
2023-04-28T21:35:58.554Z,16.73
2023-04-28T21:38:25.800Z,18.23
2023-04-28T21:40:52.458Z,17.43
2023-04-28T21:43:19.920Z,18.20
2023-04-28T21:45:46.552Z,18.07
2023-04-28T21:48:13.128Z,17.53
2023-04-28T21:50:39.803Z,15.60
2023-04-28T21:53:06.241Z,18.47
2023-04-28T21:55:32.762Z,18.00
2023-04-28T21:58:00.468Z,17.30
2023-04-28T22:00:27.965Z,17.70
2023-04-28T22:02:56.263Z,16.13
2023-04-28T22:05:24.680Z,16.90
2023-04-28T22:07:52.096Z,18.00
2023-04-28T22:10:19.212Z,20.27
2023-04-28T22:12:47.790Z,18.90
2023-04-28T22:15:14.278Z,17.97
2023-04-28T22:17:40.783Z,18.00
2023-04-28T22:20:08.474Z,20.73
2023-04-28T22:22:35.029Z,20.10
2023-04-28T22:25:02.049Z,18.40
2023-04-28T22:27:30.284Z,19.73
2023-04-28T22:29:58.534Z,21.77
2023-04-28T22:32:26.102Z,22.63
2023-04-28T22:34:53.014Z,20.40
2023-04-28T22:37:19.495Z,20.13
2023-04-28T22:39:45.887Z,21.50
2023-04-28T22:42:12.288Z,23.37
2023-04-28T22:44:38.677Z,20.90
2023-04-28T22:47:05.085Z,21.73
2023-04-28T22:49:31.776Z,24.77
2023-04-28T22:51:58.620Z,21.80
2023-04-28T22:54:25.065Z,26.53
2023-04-28T22:56:53.390Z,25.43
2023-04-28T22:59:19.992Z,27.53
2023-04-28T23:01:46.643Z,25.87
2023-04-28T23:04:13.391Z,27.27
2023-04-28T23:06:39.892Z,27.17
2023-04-28T23:09:06.970Z,28.73
2023-04-28T23:11:33.446Z,30.70
2023-04-28T23:13:59.950Z,35.73
2023-04-28T23:16:26.405Z,38.03
2023-04-28T23:18:53.013Z,39.73
2023-04-28T23:21:19.446Z,41.23
2023-04-28T23:23:46.256Z,43.60
2023-04-28T23:26:12.703Z,46.90
2023-04-28T23:28:39.106Z,46.23
2023-04-28T23:31:05.695Z,51.73
2023-04-28T23:33:32.224Z,47.63
2023-04-28T23:35:58.630Z,45.33
2023-04-28T23:38:26.275Z,51.40
2023-04-28T23:40:53.030Z,49.47
2023-04-28T23:43:19.488Z,55.87
2023-04-28T23:45:45.979Z,58.50
2023-04-28T23:48:12.481Z,66.77
2023-04-28T23:50:38.913Z,63.07
2023-04-28T23:53:05.342Z,61.87
2023-04-28T23:55:32.001Z,62.20
2023-04-28T23:57:58.493Z,65.43
